createdAt,value
2023-01-25T00:00:46.676Z,-3.06
2023-01-25T00:01:46.687Z,-2.72
2023-01-25T00:02:46.709Z,-3.28
2023-01-25T00:03:46.677Z,-2.72
2023-01-25T00:04:46.680Z,-3.06
2023-01-25T00:05:46.679Z,-3.17
2023-01-25T00:06:46.670Z,-2.61
2023-01-25T00:07:46.683Z,-2.72
2023-01-25T00:08:46.675Z,-3.06
2023-01-25T00:09:46.677Z,-3.06
2023-01-25T00:10:46.672Z,-3.28
2023-01-25T00:11:46.687Z,-3.28
2023-01-25T00:12:46.680Z,-3.44
2023-01-25T00:13:46.684Z,-3.61
2023-01-25T00:14:46.689Z,-3.61
2023-01-25T00:15:46.697Z,-3.61
2023-01-25T00:16:46.706Z,-3.44
2023-01-25T00:17:46.678Z,-3.44
2023-01-25T00:18:46.686Z,-3.44
2023-01-25T00:19:46.684Z,-3.44
2023-01-25T00:20:46.677Z,-3.44
2023-01-25T00:21:46.683Z,-3.44
2023-01-25T00:22:46.694Z,-3.44
2023-01-25T00:23:46.729Z,-3.44
2023-01-25T00:24:46.680Z,-3.61
2023-01-25T00:25:46.690Z,-3.61
2023-01-25T00:26:46.674Z,-3.44
2023-01-25T00:27:46.709Z,-3.44
2023-01-25T00:28:46.687Z,-3.28
2023-01-25T00:29:46.668Z,-3.44
2023-01-25T00:30:46.679Z,-3.06
2023-01-25T00:31:46.774Z,-3.28
2023-01-25T00:32:46.812Z,-3.17
2023-01-25T00:33:46.687Z,-3.44
2023-01-25T00:34:46.695Z,-3.61
2023-01-25T00:35:46.689Z,-3.28
2023-01-25T00:36:46.689Z,-3.17
2023-01-25T00:37:46.698Z,-3.06
2023-01-25T00:38:46.697Z,-3.72
2023-01-25T00:39:46.687Z,-3.06
2023-01-25T00:40:46.693Z,-3.28
2023-01-25T00:41:46.693Z,-3.44
2023-01-25T00:42:46.696Z,-3.06
2023-01-25T00:43:46.716Z,-3.06
2023-01-25T00:44:46.691Z,-3.06
2023-01-25T00:45:46.718Z,-3.06
2023-01-25T00:46:46.699Z,-2.89
2023-01-25T00:47:46.704Z,-3.28
2023-01-25T00:48:46.686Z,-3.06
2023-01-25T00:49:46.684Z,-3.44
2023-01-25T00:50:46.707Z,-3.06
2023-01-25T00:51:46.690Z,-3.06
2023-01-25T00:52:46.699Z,-3.06
2023-01-25T00:53:46.701Z,-3.06
2023-01-25T00:54:46.695Z,-2.89
2023-01-25T00:55:46.707Z,-3.17
2023-01-25T00:56:46.708Z,-2.89
2023-01-25T00:57:46.715Z,-2.89
2023-01-25T00:58:46.703Z,-3.06
2023-01-25T00:59:46.728Z,-3.06
2023-01-25T01:00:46.822Z,-2.72
2023-01-25T01:01:46.706Z,-2.61
2023-01-25T01:02:46.727Z,-2.72
2023-01-25T01:03:46.702Z,-2.89
2023-01-25T01:04:46.758Z,-2.72
2023-01-25T01:05:46.715Z,-2.89
2023-01-25T01:06:46.725Z,-2.72
2023-01-25T01:07:46.719Z,-3.28
2023-01-25T01:08:46.721Z,-3.06
2023-01-25T01:09:46.727Z,-2.61
2023-01-25T01:10:46.715Z,-2.89
2023-01-25T01:11:46.715Z,-2.72
2023-01-25T01:12:46.719Z,-3.06
2023-01-25T01:13:46.722Z,-3.06
2023-01-25T01:14:46.725Z,-2.72
2023-01-25T01:15:46.740Z,-2.72
2023-01-25T01:16:46.789Z,-2.61
2023-01-25T01:17:46.720Z,-2.61
2023-01-25T01:18:46.742Z,-2.89
2023-01-25T01:19:46.726Z,-2.61
2023-01-25T01:20:46.728Z,-2.72
2023-01-25T01:21:46.753Z,-3.06
2023-01-25T01:22:46.734Z,-2.61
2023-01-25T01:23:46.784Z,-2.89
2023-01-25T01:24:46.747Z,-3.06
2023-01-25T01:25:46.740Z,-2.61
2023-01-25T01:26:46.763Z,-2.72
2023-01-25T01:27:46.747Z,-2.61
2023-01-25T01:28:46.764Z,-3.17
2023-01-25T01:29:46.771Z,-2.61
2023-01-25T01:30:46.753Z,-2.72
2023-01-25T01:31:46.879Z,-2.61
2023-01-25T01:32:46.847Z,-2.61
2023-01-25T01:33:46.760Z,-2.61
2023-01-25T01:34:46.765Z,-2.44
2023-01-25T01:35:46.784Z,-2.61
2023-01-25T01:36:46.752Z,-2.61
2023-01-25T01:37:46.762Z,-2.61
2023-01-25T01:38:46.771Z,-2.44
2023-01-25T01:39:46.767Z,-2.72
2023-01-25T01:40:46.777Z,-2.72
2023-01-25T01:41:46.773Z,-2.61
2023-01-25T01:42:46.771Z,-2.72
2023-01-25T01:43:46.777Z,-2.61
2023-01-25T01:44:46.779Z,-2.72
2023-01-25T01:45:46.828Z,-2.61
2023-01-25T01:46:46.781Z,-2.61
2023-01-25T01:47:46.816Z,-3.06
2023-01-25T01:48:46.786Z,-2.72
2023-01-25T01:49:46.796Z,-2.61
2023-01-25T01:50:46.791Z,-2.89
2023-01-25T01:51:46.793Z,-2.89
2023-01-25T01:52:46.800Z,-2.61
2023-01-25T01:53:46.794Z,-2.61
2023-01-25T01:54:46.809Z,-2.89
2023-01-25T01:55:46.791Z,-2.44
2023-01-25T01:56:46.805Z,-2.61
2023-01-25T01:57:46.805Z,-2.72
2023-01-25T01:58:46.809Z,-2.61
2023-01-25T01:59:46.815Z,-2.61
2023-01-25T02:00:46.821Z,-3.06
2023-01-25T02:01:46.808Z,-2.72
2023-01-25T02:02:46.894Z,-2.61
2023-01-25T02:03:46.835Z,-2.61
2023-01-25T02:04:46.824Z,-2.44
2023-01-25T02:05:46.815Z,-2.28
2023-01-25T02:06:46.829Z,-2.61
2023-01-25T02:07:46.827Z,-2.28
2023-01-25T02:08:46.824Z,-2.44
2023-01-25T02:09:46.828Z,-2.44
2023-01-25T02:10:46.835Z,-2.61
2023-01-25T02:11:46.825Z,-2.44
2023-01-25T02:12:46.823Z,-2.61
2023-01-25T02:13:46.833Z,-2.61
2023-01-25T02:14:46.830Z,-2.44
2023-01-25T02:15:46.860Z,-2.61
2023-01-25T02:16:46.847Z,-2.44
2023-01-25T02:17:46.837Z,-2.28
2023-01-25T02:18:46.846Z,-2.61
2023-01-25T02:19:46.865Z,-2.44
2023-01-25T02:20:46.833Z,-2.44
2023-01-25T02:21:46.844Z,-2.61
2023-01-25T02:22:46.843Z,-2.61
2023-01-25T02:23:46.885Z,-2.89
2023-01-25T02:24:46.846Z,-2.89
2023-01-25T02:25:46.845Z,-2.89
2023-01-25T02:26:46.846Z,-2.72
2023-01-25T02:27:46.835Z,-2.89
2023-01-25T02:28:46.856Z,-2.61
2023-01-25T02:29:46.854Z,-2.89
2023-01-25T02:30:46.875Z,-2.72
2023-01-25T02:31:46.929Z,-2.89
2023-01-25T02:32:46.854Z,-2.61
2023-01-25T02:33:46.850Z,-2.61
2023-01-25T02:34:46.850Z,-2.61
2023-01-25T02:35:46.880Z,-2.72
2023-01-25T02:36:46.847Z,-2.72
2023-01-25T02:37:46.862Z,-2.72
2023-01-25T02:38:46.845Z,-2.61
2023-01-25T02:39:46.854Z,-2.89
2023-01-25T02:40:46.853Z,-2.89
2023-01-25T02:41:46.860Z,-2.61
2023-01-25T02:42:46.862Z,-2.89
2023-01-25T02:43:46.868Z,-2.72
2023-01-25T02:44:46.873Z,-2.89
2023-01-25T02:45:46.893Z,-2.61
2023-01-25T02:46:46.880Z,-2.61
2023-01-25T02:47:46.866Z,-2.61
2023-01-25T02:48:46.863Z,-3.06
2023-01-25T02:49:46.881Z,-2.72
2023-01-25T02:50:46.874Z,-2.89
2023-01-25T02:51:46.901Z,-3.06
2023-01-25T02:52:46.881Z,-2.61
2023-01-25T02:53:46.886Z,-2.61
2023-01-25T02:54:46.882Z,-2.61
2023-01-25T02:55:46.893Z,-2.61
2023-01-25T02:56:46.901Z,-2.61
2023-01-25T02:57:46.898Z,-2.61
2023-01-25T02:58:46.911Z,-2.61
2023-01-25T02:59:46.894Z,-2.61
2023-01-25T03:00:46.896Z,-2.61
2023-01-25T03:01:46.934Z,-2.61
2023-01-25T03:02:46.971Z,-2.72
2023-01-25T03:03:46.905Z,-2.61
2023-01-25T03:04:46.906Z,-2.61
2023-01-25T03:05:46.912Z,-2.61
2023-01-25T03:06:46.904Z,-2.72
2023-01-25T03:07:46.940Z,-2.89
2023-01-25T03:08:46.910Z,-2.61
2023-01-25T03:09:46.962Z,-3.06
2023-01-25T03:10:46.903Z,-2.61
2023-01-25T03:11:46.914Z,-2.61
2023-01-25T03:12:46.926Z,-2.61
2023-01-25T03:13:46.908Z,-2.61
2023-01-25T03:14:46.916Z,-2.61
2023-01-25T03:15:46.982Z,-2.61
2023-01-25T03:16:46.925Z,-2.72
2023-01-25T03:17:46.937Z,-2.61
2023-01-25T03:18:46.928Z,-2.61
2023-01-25T03:19:46.928Z,-2.89
2023-01-25T03:20:46.923Z,-2.61
2023-01-25T03:21:46.925Z,-2.61
2023-01-25T03:22:46.931Z,-2.72
2023-01-25T03:23:47.073Z,-2.61
2023-01-25T03:24:46.940Z,-3.06
2023-01-25T03:25:46.932Z,-2.61
2023-01-25T03:26:46.932Z,-2.61
2023-01-25T03:27:46.934Z,-2.61
2023-01-25T03:28:46.949Z,-2.44
2023-01-25T03:29:46.932Z,-2.61
2023-01-25T03:30:46.935Z,-2.61
2023-01-25T03:31:47.055Z,-2.44
2023-01-25T03:32:46.945Z,-2.28
2023-01-25T03:33:46.941Z,-2.28
2023-01-25T03:34:46.945Z,-2.17
2023-01-25T03:35:47.021Z,-2.44
2023-01-25T03:36:46.967Z,-2.44
2023-01-25T03:37:46.951Z,-2.17
2023-01-25T03:38:46.951Z,-2.17
2023-01-25T03:39:46.977Z,-2.17
2023-01-25T03:40:46.953Z,-2.17
2023-01-25T03:41:46.953Z,-2
2023-01-25T03:42:46.962Z,-2
2023-01-25T03:43:46.960Z,-1.83
2023-01-25T03:44:46.967Z,-1.83
2023-01-25T03:45:46.956Z,-1.67
2023-01-25T03:46:47.000Z,-2
2023-01-25T03:47:46.969Z,-2.17
2023-01-25T03:48:46.976Z,-2.17
2023-01-25T03:49:46.974Z,-2.17
2023-01-25T03:50:46.972Z,-2
2023-01-25T03:51:46.989Z,-2.17
2023-01-25T03:52:46.971Z,-2.17
2023-01-25T03:53:46.995Z,-2.17
2023-01-25T03:54:46.977Z,-2.44
2023-01-25T03:55:47.012Z,-2.44
2023-01-25T03:56:46.971Z,-2.28
2023-01-25T03:57:46.977Z,-2.44
2023-01-25T03:58:46.982Z,-2.28
2023-01-25T03:59:46.978Z,-2.28
2023-01-25T04:00:47.067Z,-2.28
2023-01-25T04:01:46.976Z,-2.28
2023-01-25T04:02:46.986Z,-2.28
2023-01-25T04:03:46.992Z,-2.28
2023-01-25T04:04:46.985Z,-2.44
2023-01-25T04:05:46.977Z,-2.61
2023-01-25T04:06:46.983Z,-2.44
2023-01-25T04:07:46.991Z,-2.28
2023-01-25T04:08:46.990Z,-2.44
2023-01-25T04:09:47.001Z,-2.17
2023-01-25T04:10:46.990Z,-2.44
2023-01-25T04:11:47.022Z,-2
2023-01-25T04:12:47.000Z,-2.28
2023-01-25T04:13:47.003Z,-2.17
2023-01-25T04:14:47.010Z,-2.28
2023-01-25T04:15:46.998Z,-2.44
2023-01-25T04:16:47.065Z,-2.17
2023-01-25T04:17:47.003Z,-2.44
2023-01-25T04:18:47.024Z,-2.44
2023-01-25T04:19:47.017Z,-2.44
2023-01-25T04:20:47.011Z,-2.44
2023-01-25T04:21:47.004Z,-2.28
2023-01-25T04:22:47.015Z,-2.17
2023-01-25T04:23:47.024Z,-2.17
2023-01-25T04:24:47.008Z,-2.17
2023-01-25T04:25:47.008Z,-2.44
2023-01-25T04:26:47.016Z,-2.44
2023-01-25T04:27:47.038Z,-2.28
2023-01-25T04:28:47.018Z,-2.17
2023-01-25T04:29:47.023Z,-2.17
2023-01-25T04:30:47.025Z,-2.28
2023-01-25T04:31:47.103Z,-2.17
2023-01-25T04:32:47.144Z,-2.17
2023-01-25T04:33:47.012Z,-2.17
2023-01-25T04:34:47.027Z,-2.28
2023-01-25T04:35:47.033Z,-2.61
2023-01-25T04:36:47.015Z,-2.44
2023-01-25T04:37:47.032Z,-2.44
2023-01-25T04:38:47.019Z,-2.28
2023-01-25T04:39:47.027Z,-2.89
2023-01-25T04:40:47.016Z,-2.61
2023-01-25T04:41:47.025Z,-2.17
2023-01-25T04:42:47.031Z,-2.28
2023-01-25T04:43:47.097Z,-2.17
2023-01-25T04:44:47.026Z,-2.17
2023-01-25T04:45:47.078Z,-2.61
2023-01-25T04:46:47.036Z,-2.28
2023-01-25T04:47:47.030Z,-2.17
2023-01-25T04:48:47.045Z,-2.17
2023-01-25T04:49:47.070Z,-2.17
2023-01-25T04:50:47.041Z,-2.44
2023-01-25T04:51:47.051Z,-2.28
2023-01-25T04:52:47.036Z,-2.44
2023-01-25T04:53:47.042Z,-2.28
2023-01-25T04:54:47.041Z,-2.28
2023-01-25T04:55:47.046Z,-2.61
2023-01-25T04:56:47.053Z,-2.28
2023-01-25T04:57:47.041Z,-2.28
2023-01-25T04:58:47.059Z,-2.17
2023-01-25T04:59:47.074Z,-2.72
2023-01-25T05:00:47.059Z,-2.44
2023-01-25T05:01:47.056Z,-2.28
2023-01-25T05:02:47.226Z,-2.44
2023-01-25T05:03:47.047Z,-2.44
2023-01-25T05:04:47.055Z,-2.17
2023-01-25T05:05:47.044Z,-2.17
2023-01-25T05:06:47.048Z,-2.17
2023-01-25T05:07:47.049Z,-2.44
2023-01-25T05:08:47.049Z,-2.61
2023-01-25T05:09:47.075Z,-2.28
2023-01-25T05:10:47.061Z,-2.61
2023-01-25T05:11:47.066Z,-2.44
2023-01-25T05:12:47.062Z,-2.28
2023-01-25T05:13:47.069Z,-2.44
2023-01-25T05:14:47.060Z,-2.44
2023-01-25T05:15:47.075Z,-2.61
2023-01-25T05:16:47.144Z,-2.28
2023-01-25T05:17:47.062Z,-2.44
2023-01-25T05:18:49.033Z,-2.61
2023-01-25T05:19:47.068Z,-2.44
2023-01-25T05:20:47.068Z,-2.61
2023-01-25T05:21:47.063Z,-2.17
2023-01-25T05:22:47.064Z,-2.17
2023-01-25T05:23:47.197Z,-2.28
2023-01-25T05:24:47.053Z,-2.28
2023-01-25T05:25:47.056Z,-2.17
2023-01-25T05:26:47.073Z,-2.44
2023-01-25T05:27:47.082Z,-2.28
2023-01-25T05:28:47.063Z,-2.44
2023-01-25T05:29:47.053Z,-2.72
2023-01-25T05:30:47.137Z,-2.17
2023-01-25T05:31:47.166Z,-2.28
2023-01-25T05:32:47.068Z,-2.17
2023-01-25T05:33:47.063Z,-2.17
2023-01-25T05:34:47.063Z,-2.28
2023-01-25T05:35:47.070Z,-2.17
2023-01-25T05:36:47.066Z,-2.17
2023-01-25T05:37:47.091Z,-2.17
2023-01-25T05:38:47.056Z,-2.17
2023-01-25T05:39:47.068Z,-2.17
2023-01-25T05:40:47.072Z,-2.17
2023-01-25T05:41:47.070Z,-2.17
2023-01-25T05:42:47.065Z,-2.44
2023-01-25T05:43:47.081Z,-1.83
2023-01-25T05:44:47.990Z,-2.72
2023-01-25T05:45:47.062Z,-2.17
2023-01-25T05:46:47.065Z,-2.28
2023-01-25T05:47:47.087Z,-2.17
2023-01-25T05:48:47.082Z,-2.72
2023-01-25T05:49:47.062Z,-2.17
2023-01-25T05:50:47.090Z,-2.17
2023-01-25T05:51:47.079Z,-2.17
2023-01-25T05:52:47.072Z,-2.44
2023-01-25T05:53:47.070Z,-2.17
2023-01-25T05:54:47.075Z,-2
2023-01-25T05:55:47.063Z,-2.17
2023-01-25T05:56:47.056Z,-2.17
2023-01-25T05:57:47.082Z,-2.17
2023-01-25T05:58:47.079Z,-2
2023-01-25T05:59:47.086Z,-2.17
2023-01-25T06:00:47.079Z,-2.17
2023-01-25T06:01:47.077Z,-2.28
2023-01-25T06:02:47.222Z,-2.17
2023-01-25T06:03:47.200Z,-1.83
2023-01-25T06:04:47.087Z,-2.28
2023-01-25T06:05:47.083Z,-2
2023-01-25T06:06:47.093Z,-1.83
2023-01-25T06:07:47.097Z,-1.83
2023-01-25T06:08:47.100Z,-1.83
2023-01-25T06:09:47.097Z,-2
2023-01-25T06:10:47.089Z,-2
2023-01-25T06:11:47.120Z,-2.17
2023-01-25T06:12:47.127Z,-2
2023-01-25T06:13:47.106Z,-2
2023-01-25T06:14:47.103Z,-2.28
2023-01-25T06:15:47.141Z,-1.67
2023-01-25T06:16:47.115Z,-2
2023-01-25T06:17:47.107Z,-2.17
2023-01-25T06:18:47.100Z,-2
2023-01-25T06:19:47.143Z,-2
2023-01-25T06:20:47.115Z,-2.17
2023-01-25T06:21:47.133Z,-2
2023-01-25T06:22:47.113Z,-2
2023-01-25T06:23:47.191Z,-2.17
2023-01-25T06:24:47.114Z,-2.44
2023-01-25T06:25:47.128Z,-2.17
2023-01-25T06:26:47.128Z,-2
2023-01-25T06:27:47.129Z,-2.17
2023-01-25T06:28:47.126Z,-2.17
2023-01-25T06:29:47.120Z,-2.17
2023-01-25T06:30:47.145Z,-2.28
2023-01-25T06:31:47.146Z,-2.28
2023-01-25T06:32:47.128Z,-2
2023-01-25T06:33:47.132Z,-2.17
2023-01-25T06:34:47.134Z,-2.44
2023-01-25T06:35:47.157Z,-2.44
2023-01-25T06:36:47.139Z,-2.17
2023-01-25T06:37:47.144Z,-2.17
2023-01-25T06:38:47.143Z,-2.44
2023-01-25T06:39:47.159Z,-2.17
2023-01-25T06:40:47.149Z,-2.17
2023-01-25T06:41:47.150Z,-2.28
2023-01-25T06:42:47.161Z,-2.44
2023-01-25T06:43:47.152Z,-2.28
2023-01-25T06:44:47.147Z,-2.28
2023-01-25T06:45:47.152Z,-2.28
2023-01-25T06:46:47.178Z,-2.44
2023-01-25T06:47:47.157Z,-2.44
2023-01-25T06:48:47.161Z,-1.83
2023-01-25T06:49:47.158Z,-2.28
2023-01-25T06:50:47.164Z,-2.17
2023-01-25T06:51:47.182Z,-2.17
2023-01-25T06:52:47.165Z,-1.83
2023-01-25T06:53:47.175Z,-2.17
2023-01-25T06:54:47.168Z,-2
2023-01-25T06:55:47.178Z,-1.83
2023-01-25T06:56:47.178Z,-1.83
2023-01-25T06:57:47.177Z,-2.17
2023-01-25T06:58:47.175Z,-1.67
2023-01-25T06:59:47.184Z,-1.67
2023-01-25T07:00:47.200Z,-1.83
2023-01-25T07:01:47.266Z,-2
2023-01-25T07:02:47.221Z,-2
2023-01-25T07:03:47.177Z,-1.83
2023-01-25T07:04:47.196Z,-1.83
2023-01-25T07:05:47.197Z,-2
2023-01-25T07:06:47.185Z,-1.83
2023-01-25T07:07:47.235Z,-1.67
2023-01-25T07:08:47.202Z,-1.67
2023-01-25T07:09:47.185Z,-1.56
2023-01-25T07:10:47.191Z,-1.67
2023-01-25T07:11:47.209Z,-1.67
2023-01-25T07:12:47.209Z,-1.83
2023-01-25T07:13:47.204Z,-1.67
2023-01-25T07:14:47.199Z,-1.56
2023-01-25T07:15:47.216Z,-1.67
2023-01-25T07:16:47.213Z,-1.67
2023-01-25T07:17:47.210Z,-1.44
2023-01-25T07:18:47.211Z,-1.44
2023-01-25T07:19:47.228Z,-1.44
2023-01-25T07:20:47.219Z,-1.44
2023-01-25T07:21:47.222Z,-1.44
2023-01-25T07:22:47.223Z,-1.56
2023-01-25T07:23:47.281Z,-1.44
2023-01-25T07:24:47.227Z,-1.56
2023-01-25T07:25:47.224Z,-1.56
2023-01-25T07:26:47.227Z,-1.67
2023-01-25T07:27:47.240Z,-1.83
2023-01-25T07:28:47.232Z,-1.56
2023-01-25T07:29:47.239Z,-1.56
2023-01-25T07:30:47.242Z,-1.44
2023-01-25T07:31:47.379Z,-1.28
2023-01-25T07:32:47.241Z,-1.56
2023-01-25T07:33:47.248Z,-1.28
2023-01-25T07:34:47.238Z,-1.11
2023-01-25T07:35:47.246Z,-1.28
2023-01-25T07:36:47.262Z,-1
2023-01-25T07:37:47.241Z,-1.11
2023-01-25T07:38:47.252Z,-1
2023-01-25T07:39:47.270Z,-1
2023-01-25T07:40:47.255Z,-1
2023-01-25T07:41:47.268Z,-1.11
2023-01-25T07:42:47.249Z,-1.28
2023-01-25T07:43:47.253Z,-1.56
2023-01-25T07:44:47.254Z,-1.28
2023-01-25T07:45:47.251Z,-1.56
2023-01-25T07:46:47.251Z,-1.28
2023-01-25T07:47:47.256Z,-1.56
2023-01-25T07:48:47.265Z,-1.28
2023-01-25T07:49:47.249Z,-0.83
2023-01-25T07:50:47.253Z,-1
2023-01-25T07:51:47.263Z,-0.83
2023-01-25T07:52:47.263Z,-0.83
2023-01-25T07:53:47.272Z,-0.67
2023-01-25T07:54:48.312Z,-0.67
2023-01-25T07:55:47.298Z,-0.39
2023-01-25T07:56:47.280Z,-0.56
2023-01-25T07:57:47.271Z,-0.39
2023-01-25T07:58:47.278Z,-0.39
2023-01-25T07:59:47.281Z,-0.39
2023-01-25T08:00:47.287Z,-0.39
2023-01-25T08:01:47.279Z,-0.39
2023-01-25T08:02:47.291Z,-0.39
2023-01-25T08:03:47.283Z,-0.56
2023-01-25T08:04:47.279Z,-0.56
2023-01-25T08:05:47.303Z,-0.67
2023-01-25T08:06:47.292Z,-0.56
2023-01-25T08:07:47.298Z,-0.39
2023-01-25T08:08:47.291Z,-0.56
2023-01-25T08:09:47.300Z,-0.39
2023-01-25T08:10:47.287Z,-0.56
2023-01-25T08:11:47.326Z,-0.39
2023-01-25T08:12:47.323Z,-0.39
2023-01-25T08:13:47.301Z,0
2023-01-25T08:14:47.300Z,0
2023-01-25T08:15:47.296Z,-0.67
2023-01-25T08:16:47.327Z,-0.67
2023-01-25T08:17:47.309Z,-0.39
2023-01-25T08:18:47.305Z,-0.28
2023-01-25T08:19:47.308Z,-0.28
2023-01-25T08:20:47.308Z,-0.39
2023-01-25T08:21:47.316Z,-0.67
2023-01-25T08:22:47.317Z,-1
2023-01-25T08:23:47.376Z,-1
2023-01-25T08:24:47.318Z,-0.67
2023-01-25T08:25:47.321Z,-0.39
2023-01-25T08:26:47.319Z,-0.56
2023-01-25T08:27:47.339Z,-0.39
2023-01-25T08:28:47.317Z,-0.67
2023-01-25T08:29:47.311Z,-0.83
2023-01-25T08:30:56.675Z,-0.83
2023-01-25T08:31:47.409Z,-1
2023-01-25T08:32:47.323Z,-1
2023-01-25T08:33:47.321Z,-1
2023-01-25T08:34:48.348Z,-0.83
2023-01-25T08:35:47.337Z,-1.11
2023-01-25T08:36:47.333Z,-1.11
2023-01-25T08:37:47.335Z,-0.67
2023-01-25T08:38:47.360Z,-0.83
2023-01-25T08:39:47.325Z,-0.56
2023-01-25T08:40:47.344Z,-0.56
2023-01-25T08:41:47.321Z,-0.83
2023-01-25T08:42:47.337Z,-0.67
2023-01-25T08:43:47.377Z,-0.56
2023-01-25T08:44:47.342Z,-0.39
2023-01-25T08:45:47.337Z,-0.67
2023-01-25T08:46:47.350Z,-0.28
2023-01-25T08:47:47.340Z,0
2023-01-25T08:48:47.344Z,0
2023-01-25T08:49:47.337Z,0.44
2023-01-25T08:50:47.348Z,0.28
2023-01-25T08:51:47.351Z,0.28
2023-01-25T08:52:47.350Z,0.72
2023-01-25T08:53:47.345Z,0.72
2023-01-25T08:54:47.345Z,0.72
2023-01-25T08:55:47.372Z,0.44
2023-01-25T08:56:47.353Z,0.44
2023-01-25T08:57:47.355Z,0.61
2023-01-25T08:58:47.344Z,0.89
2023-01-25T08:59:47.378Z,0.89
2023-01-25T09:00:47.345Z,0.89
2023-01-25T09:01:47.389Z,0.89
2023-01-25T09:02:47.356Z,1.17
2023-01-25T09:03:47.471Z,1.33
2023-01-25T09:04:47.357Z,1.33
2023-01-25T09:05:47.369Z,1.17
2023-01-25T09:06:47.370Z,1.33
2023-01-25T09:07:47.724Z,1.06
2023-01-25T09:08:47.366Z,1.17
2023-01-25T09:09:47.375Z,0.72
2023-01-25T09:10:47.374Z,1.06
2023-01-25T09:11:47.374Z,0.44
2023-01-25T09:12:47.372Z,0.44
2023-01-25T09:13:47.388Z,0.28
2023-01-25T09:14:47.381Z,0.89
2023-01-25T09:15:47.398Z,1.17
2023-01-25T09:16:47.384Z,1.17
2023-01-25T09:17:47.378Z,1.33
2023-01-25T09:18:49.637Z,1.61
2023-01-25T09:19:47.392Z,1.72
2023-01-25T09:20:47.384Z,1.89
2023-01-25T09:21:47.396Z,2
2023-01-25T09:22:47.391Z,1.61
2023-01-25T09:23:50.877Z,2.17
2023-01-25T09:24:47.445Z,1.61
2023-01-25T09:25:47.389Z,1.5
2023-01-25T09:26:55.870Z,1.17
2023-01-25T09:27:47.395Z,1.33
2023-01-25T09:28:47.386Z,0.72
2023-01-25T09:30:00.865Z,0.61
2023-01-25T09:30:53.657Z,0.28
2023-01-25T09:31:47.584Z,0.44
2023-01-25T09:32:47.488Z,0.61
2023-01-25T09:33:47.409Z,0.44
2023-01-25T09:34:47.396Z,0.44
2023-01-25T09:35:47.402Z,0.72
2023-01-25T09:36:47.412Z,0.72
2023-01-25T09:37:47.395Z,0.89
2023-01-25T09:38:47.400Z,0.72
2023-01-25T09:39:47.391Z,1.06
2023-01-25T09:40:47.409Z,0.89
2023-01-25T09:41:47.398Z,0.61
2023-01-25T09:42:47.405Z,0.28
2023-01-25T09:43:47.414Z,0.44
2023-01-25T09:44:47.418Z,0.72
2023-01-25T09:45:47.415Z,1.06
2023-01-25T09:46:47.400Z,1.5
2023-01-25T09:47:47.423Z,1.61
2023-01-25T09:48:48.606Z,2
2023-01-25T09:49:47.407Z,1.72
2023-01-25T09:50:47.406Z,1.5
2023-01-25T09:51:47.420Z,1.5
2023-01-25T09:52:47.416Z,1.5
2023-01-25T09:53:47.406Z,2
2023-01-25T09:54:47.698Z,2.17
2023-01-25T09:55:47.416Z,2.61
2023-01-25T09:56:47.429Z,2.61
2023-01-25T09:57:47.412Z,2.17
2023-01-25T09:58:47.422Z,2.44
2023-01-25T09:59:47.411Z,2
2023-01-25T10:00:47.435Z,2
2023-01-25T10:01:47.536Z,1.61
2023-01-25T10:02:47.455Z,1.61
2023-01-25T10:03:47.445Z,1.5
2023-01-25T10:04:47.418Z,2.28
2023-01-25T10:05:47.432Z,2.28
2023-01-25T10:07:02.074Z,2.61
2023-01-25T10:07:47.415Z,2.17
2023-01-25T10:08:47.421Z,2.44
2023-01-25T10:09:47.427Z,2
2023-01-25T10:10:47.419Z,2.72
2023-01-25T10:11:47.420Z,2.44
2023-01-25T10:12:47.439Z,3
2023-01-25T10:13:47.437Z,3.33
2023-01-25T10:14:47.441Z,3
2023-01-25T10:15:47.449Z,2.89
2023-01-25T10:16:47.497Z,2.89
2023-01-25T10:17:47.443Z,3.33
2023-01-25T10:18:47.430Z,3
2023-01-25T10:19:47.451Z,3
2023-01-25T10:20:47.424Z,3
2023-01-25T10:21:47.446Z,3.33
2023-01-25T10:22:47.446Z,3.17
2023-01-25T10:23:47.492Z,3.17
2023-01-25T10:24:47.439Z,2.44
2023-01-25T10:25:47.581Z,3
2023-01-25T10:26:47.436Z,3
2023-01-25T10:27:47.439Z,2.28
2023-01-25T10:28:47.450Z,2
2023-01-25T10:29:47.442Z,2
2023-01-25T10:30:47.477Z,1.72
2023-01-25T10:31:47.502Z,1.72
2023-01-25T10:32:55.828Z,1.33
2023-01-25T10:33:47.434Z,1.33
2023-01-25T10:34:56.142Z,1.17
2023-01-25T10:35:48.084Z,1.33
2023-01-25T10:36:47.430Z,1.17
2023-01-25T10:37:47.443Z,1.17
2023-01-25T10:38:47.453Z,1.06
2023-01-25T10:39:47.443Z,1.17
2023-01-25T10:40:47.446Z,1.72
2023-01-25T10:41:48.187Z,1.5
2023-01-25T10:42:47.440Z,1.5
2023-01-25T10:43:47.437Z,1.61
2023-01-25T10:44:47.452Z,1.61
2023-01-25T10:45:47.430Z,1.61
2023-01-25T10:46:47.467Z,1.89
2023-01-25T10:47:47.451Z,1.72
2023-01-25T10:48:47.439Z,1.61
2023-01-25T10:49:47.569Z,1.72
2023-01-25T10:50:47.475Z,1.72
2023-01-25T10:51:47.473Z,1.72
2023-01-25T10:52:47.435Z,1.61
2023-01-25T10:53:47.441Z,2.17
2023-01-25T10:54:47.435Z,2.17
2023-01-25T10:55:47.447Z,1.61
2023-01-25T10:56:47.450Z,1.5
2023-01-25T10:57:47.449Z,2.17
2023-01-25T10:58:47.438Z,2.17
2023-01-25T10:59:47.525Z,2
2023-01-25T11:00:47.451Z,2.28
2023-01-25T11:01:47.548Z,1.89
2023-01-25T11:02:47.516Z,1.72
2023-01-25T11:03:47.447Z,1.61
2023-01-25T11:04:47.457Z,1.61
2023-01-25T11:05:47.448Z,1.33
2023-01-25T11:06:47.452Z,1.33
2023-01-25T11:07:47.492Z,1.61
2023-01-25T11:08:47.446Z,1.5
2023-01-25T11:09:47.449Z,1.5
2023-01-25T11:10:47.456Z,1.5
2023-01-25T11:11:47.448Z,1.89
2023-01-25T11:12:47.456Z,1.72
2023-01-25T11:13:47.456Z,1.72
2023-01-25T11:14:47.452Z,1.72
2023-01-25T11:15:47.481Z,1.61
2023-01-25T11:16:47.473Z,1.61
2023-01-25T11:17:48.664Z,2.61
2023-01-25T11:18:47.457Z,2.61
2023-01-25T11:19:47.453Z,3
2023-01-25T11:20:47.461Z,3.44
2023-01-25T11:21:47.484Z,3.17
2023-01-25T11:22:47.483Z,3.17
2023-01-25T11:23:49.135Z,3.33
2023-01-25T11:24:47.512Z,3.72
2023-01-25T11:25:47.477Z,3
2023-01-25T11:26:47.504Z,2.61
2023-01-25T11:27:47.493Z,2.61
2023-01-25T11:28:47.479Z,2.28
2023-01-25T11:29:47.477Z,2.17
2023-01-25T11:30:47.578Z,2.17
2023-01-25T11:31:47.509Z,2.17
2023-01-25T11:32:47.482Z,1.72
2023-01-25T11:33:47.479Z,1.72
2023-01-25T11:34:47.476Z,1.56
2023-01-25T11:35:47.485Z,1.72
2023-01-25T11:36:47.499Z,1.61
2023-01-25T11:37:47.479Z,1.61
2023-01-25T11:38:47.493Z,1.83
2023-01-25T11:39:47.750Z,1.89
2023-01-25T11:40:47.503Z,1.72
2023-01-25T11:41:47.496Z,1.89
2023-01-25T11:42:47.503Z,1.72
2023-01-25T11:43:47.500Z,2
2023-01-25T11:44:47.504Z,2.44
2023-01-25T11:45:47.510Z,2.72
2023-01-25T11:46:47.609Z,3
2023-01-25T11:47:47.532Z,3.33
2023-01-25T11:48:47.524Z,3.33
2023-01-25T11:49:47.505Z,3.17
2023-01-25T11:50:47.518Z,3.33
2023-01-25T11:51:48.917Z,3.44
2023-01-25T11:52:48.547Z,3.44
2023-01-25T11:53:47.511Z,3.33
2023-01-25T11:54:47.507Z,3.33
2023-01-25T11:55:47.531Z,3.33
2023-01-25T11:56:47.516Z,3.33
2023-01-25T11:57:47.504Z,3
2023-01-25T11:58:47.511Z,2.89
2023-01-25T11:59:47.523Z,2.89
2023-01-25T12:00:47.518Z,2.61
2023-01-25T12:01:47.552Z,2.61
2023-01-25T12:02:47.528Z,2.72
2023-01-25T12:03:47.576Z,2.44
2023-01-25T12:04:47.524Z,2.44
2023-01-25T12:05:47.520Z,2.39
2023-01-25T12:06:47.532Z,2.61
2023-01-25T12:07:47.523Z,1.72
2023-01-25T12:08:47.530Z,2.61
2023-01-25T12:09:47.536Z,2.89
2023-01-25T12:10:47.531Z,3
2023-01-25T12:11:47.553Z,3.33
2023-01-25T12:12:47.531Z,3.44
2023-01-25T12:13:47.523Z,3.44
2023-01-25T12:14:47.543Z,3.44
2023-01-25T12:15:47.605Z,3.72
2023-01-25T12:16:47.539Z,3.44
2023-01-25T12:17:47.545Z,3.44
2023-01-25T12:18:47.542Z,3.56
2023-01-25T12:19:47.537Z,3.83
2023-01-25T12:20:47.548Z,3.83
2023-01-25T12:21:47.540Z,3.83
2023-01-25T12:22:47.535Z,3.83
2023-01-25T12:23:47.615Z,3.33
2023-01-25T12:24:47.557Z,3.17
2023-01-25T12:25:47.539Z,3.44
2023-01-25T12:26:47.547Z,3.56
2023-01-25T12:27:47.563Z,3.44
2023-01-25T12:28:47.549Z,3.33
2023-01-25T12:29:47.552Z,3.17
2023-01-25T12:30:47.574Z,2.72
2023-01-25T12:31:47.606Z,2.72
2023-01-25T12:32:47.549Z,3.17
2023-01-25T12:33:47.546Z,3
2023-01-25T12:34:47.547Z,2.89
2023-01-25T12:35:47.552Z,3
2023-01-25T12:36:47.564Z,3
2023-01-25T12:37:47.555Z,2.72
2023-01-25T12:38:47.554Z,3
2023-01-25T12:39:47.560Z,3
2023-01-25T12:40:47.563Z,2.72
2023-01-25T12:41:47.554Z,2.44
2023-01-25T12:42:47.572Z,1.89
2023-01-25T12:43:47.582Z,2.61
2023-01-25T12:44:47.570Z,2.61
2023-01-25T12:45:47.565Z,2.89
2023-01-25T12:46:47.649Z,2.61
2023-01-25T12:47:47.569Z,2.61
2023-01-25T12:48:47.568Z,2.61
2023-01-25T12:49:47.558Z,2.44
2023-01-25T12:50:47.569Z,2.44
2023-01-25T12:51:47.564Z,2.22
2023-01-25T12:52:47.564Z,1.89
2023-01-25T12:53:47.587Z,2.61
2023-01-25T12:54:47.585Z,2.67
2023-01-25T12:55:47.576Z,2.61
2023-01-25T12:56:47.573Z,2.78
2023-01-25T12:57:47.599Z,2.17
2023-01-25T12:58:47.583Z,1.72
2023-01-25T12:59:47.612Z,1.56
2023-01-25T13:00:47.635Z,1.83
2023-01-25T13:01:47.628Z,2
2023-01-25T13:02:47.574Z,2.67
2023-01-25T13:03:47.594Z,2.61
2023-01-25T13:04:47.593Z,2.17
2023-01-25T13:05:47.586Z,2.61
2023-01-25T13:06:47.584Z,2.61
2023-01-25T13:07:47.596Z,2.72